Humidity-temperature Sensor

Selected Measurement Type: Relative Humidity

 
Relative Humidity [%]     6 entries per hour
Showing data from 12/4/2021 (00:00:00 Z) to 11/27/2021 (00:01:00 Z)
Previous Next [ Day | 3-Days | 7-Days ]
First Last
Prev [ Day | 3-Days | 7-Days ] Next
First Last

Start Time:     :
End Time:     :     
Time (in GMT) :00 :50 :40 :30 :20 :10
Previous Next [ Day | 3-Days | 7-Days ]
First Last
Prev [ Day | 3-Days | 7-Days ] Next
First Last


123 => good data
MM => data is determined as missing
-- => data not received/configured
Back to Top Back to Top
12/4/2021 00:00 to 23:10 97.74 97.54 97.44 97.26 97.11 97.01
12/3/2021 23:00 to 22:10 96.63 96.27 96.04 95.66 95.03 94.71
12/3/2021 22:00 to 21:10 94.35 94.57 94.65 94.67 94.29 93.06
12/3/2021 21:00 to 20:10 93.78 93.80 94.27 94.49 94.83 94.47
12/3/2021 20:00 to 19:10 94.43 94.59 94.55 94.21 94.93 95.44
12/3/2021 19:00 to 18:10 95.12 95.78 95.36 96.51 96.75 96.95
12/3/2021 18:00 to 17:10 96.99 97.56 97.72 97.90 97.58 98.02
12/3/2021 17:00 to 16:10 98.23 98.19 98.27 98.57 98.93 99.18
12/3/2021 16:00 to 15:10 99.32 99.50 99.40 99.62 99.94 100.00
12/3/2021 15:00 to 14:10 99.86 99.70 99.72 99.82 99.94 99.98
12/3/2021 14:00 to 13:10 100.00 99.90 99.72 99.72 99.96 99.26
12/3/2021 13:00 to 12:10 98.79 98.04 98.49 99.18 99.07 98.83
12/3/2021 12:00 to 11:10 98.75 99.15 99.72 100.45 100.59 100.59
12/3/2021 11:00 to 10:10 100.55 100.59 100.55 100.49 100.43 100.35
12/3/2021 10:00 to 9:10 100.31 100.23 100.15 100.00 99.90 99.82
12/3/2021 09:00 to 8:10 99.72 99.54 99.44 99.40 99.38 99.50
12/3/2021 08:00 to 7:10 99.58 99.78 100.08 100.21 100.35 100.47
12/3/2021 07:00 to 6:10 100.59 100.61 100.61 100.61 100.61 100.59
12/3/2021 06:00 to 5:10 100.47 100.37 100.25 100.17 100.06 100.00
12/3/2021 05:00 to 4:10 99.88 99.80 99.80 99.76 99.76 99.72
12/3/2021 04:00 to 3:10 99.64 99.64 99.46 99.36 99.03 98.73
12/3/2021 03:00 to 2:10 98.51 98.19 98.47 99.11 98.95 98.69
12/3/2021 02:00 to 1:10 98.71 98.79 98.95 99.32 99.20 98.95
12/3/2021 01:00 to 0:10 98.71 98.25 97.42 97.11 98.41 98.87
12/3/2021 00:00 to 23:10 99.03 99.54 98.99 98.65 98.77 98.95
12/2/2021 23:00 to 22:10 98.75 98.15 97.66 97.44 97.38 97.16
12/2/2021 22:00 to 21:10 96.85 96.87 96.45 96.21 96.11 95.94
12/2/2021 21:00 to 20:10 94.91 96.08 96.23 95.66 95.56 94.45
12/2/2021 20:00 to 19:10 95.90 95.96 96.37 96.02 96.15 96.02
12/2/2021 19:00 to 18:10 96.49 95.82 96.39 96.31 96.47 96.81
12/2/2021 18:00 to 17:10 97.11 97.44 97.18 97.50 96.81 95.56
12/2/2021 17:00 to 16:10 95.60 95.86 96.35 96.27 96.73 97.36
12/2/2021 16:00 to 15:10 97.66 97.94 98.15 98.33 98.19 97.98
12/2/2021 15:00 to 14:10 97.88 97.74 97.44 97.46 97.30 97.36
12/2/2021 14:00 to 13:10 97.30 96.15 96.23 96.77 97.36 97.40
12/2/2021 13:00 to 12:10 97.03 97.09 97.11 97.09 96.93 96.99
12/2/2021 12:00 to 11:10 97.14 97.96 98.83 99.46 99.70 99.84
12/2/2021 11:00 to 10:10 99.84 99.76 99.82 99.98 100.29 100.35
12/2/2021 10:00 to 9:10 100.23 100.19 100.12 100.21 100.37 100.61
12/2/2021 09:00 to 8:10 100.61 100.61 100.61 100.61 100.61 100.61
12/2/2021 08:00 to 7:10 100.61 100.61 100.61 100.61 100.61 100.53
12/2/2021 07:00 to 6:10 100.43 100.37 100.29 100.21 100.04 99.94
12/2/2021 06:00 to 5:10 99.82 99.68 99.56 99.48 99.38 99.30
12/2/2021 05:00 to 4:10 99.22 99.20 99.03 98.83 98.87 98.85
12/2/2021 04:00 to 3:10 98.75 98.89 99.13 99.11 99.26 99.20
12/2/2021 03:00 to 2:10 99.15 99.09 98.79 98.33 98.47 98.97
12/2/2021 02:00 to 1:10 99.42 99.46 99.42 99.30 98.99 99.07
12/2/2021 01:00 to 0:10 99.18 98.97 98.83 98.67 98.55 98.43
12/2/2021 00:00 to 23:10 98.10 97.98 97.92 97.98 97.82 97.78
12/1/2021 23:00 to 22:10 97.92 97.78 97.90 97.78 97.84 97.86
12/1/2021 22:00 to 21:10 97.82 97.88 97.88 97.72 97.46 97.22
12/1/2021 21:00 to 20:10 96.87 97.42 97.72 97.70 97.64 97.66
12/1/2021 20:00 to 19:10 97.84 97.72 97.66 97.56 97.52 97.42
12/1/2021 19:00 to 18:10 97.38 97.42 97.07 96.95 97.03 97.24
12/1/2021 18:00 to 17:10 97.28 97.24 97.22 97.16 97.09 97.14
12/1/2021 17:00 to 16:10 96.61 97.36 97.70 97.88 97.78 97.56
12/1/2021 16:00 to 15:10 97.56 97.05 96.85 96.79 97.16 97.58
12/1/2021 15:00 to 14:10 97.62 98.12 98.39 98.57 98.57 98.51
12/1/2021 14:00 to 13:10 98.83 98.91 98.93 98.95 98.79 98.73
12/1/2021 13:00 to 12:10 98.67 98.61 98.43 98.39 98.45 98.31
12/1/2021 12:00 to 11:10 98.17 97.88 97.78 97.68 97.84 97.80
12/1/2021 11:00 to 10:10 97.62 97.68 98.10 98.08 97.72 97.92
12/1/2021 10:00 to 9:10 97.98 98.15 97.36 97.62 97.92 98.41
12/1/2021 09:00 to 8:10 98.43 98.29 98.51 98.67 98.55 98.49
12/1/2021 08:00 to 7:10 98.12 98.15 98.04 97.80 97.38 97.20
12/1/2021 07:00 to 6:10 97.11 96.93 96.85 96.75 96.53 96.75
12/1/2021 06:00 to 5:10 97.01 96.99 97.03 97.01 96.99 97.48
12/1/2021 05:00 to 4:10 97.50 97.38 97.36 97.50 98.33 98.55
12/1/2021 04:00 to 3:10 98.37 98.53 98.89 98.83 98.85 98.91
12/1/2021 03:00 to 2:10 98.85 98.85 98.71 98.53 98.41 98.37
12/1/2021 02:00 to 1:10 98.33 98.21 97.96 97.76 97.56 97.18
12/1/2021 01:00 to 0:10 96.55 95.62 94.43 94.53 94.75 95.60
12/1/2021 00:00 to 23:10 94.85 94.31 94.15 94.21 94.29 94.81
11/30/2021 23:00 to 22:10 95.14 95.12 95.54 95.50 95.68 96.02
11/30/2021 22:00 to 21:10 96.02 96.00 96.25 96.69 96.53 96.04
11/30/2021 21:00 to 20:10 95.70 95.01 95.10 95.64 95.80 95.38
11/30/2021 20:00 to 19:10 94.83 94.55 95.30 94.83 94.15 93.60
11/30/2021 19:00 to 18:10 94.11 94.04 94.95 94.04 93.82 93.48
11/30/2021 18:00 to 17:10 93.12 92.21 93.26 93.90 94.27 94.31
11/30/2021 17:00 to 16:10 94.39 93.96 93.56 92.79 91.58 93.42
11/30/2021 16:00 to 15:10 96.06 97.36 97.52 97.56 96.97 98.49
11/30/2021 15:00 to 14:10 99.05 98.81 98.99 98.73 99.20 98.93
11/30/2021 14:00 to 13:10 99.92 100.45 100.51 100.55 100.61 100.61
11/30/2021 13:00 to 12:10 100.57 100.49 100.45 100.43 100.53 100.55
11/30/2021 12:00 to 11:10 100.61 100.61 100.61 100.61 100.61 100.61
11/30/2021 11:00 to 10:10 100.61 100.61 100.61 100.61 100.61 100.61
11/30/2021 10:00 to 9:10 100.61 100.55 100.43 100.37 100.37 100.37
11/30/2021 09:00 to 8:10 100.35 100.37 100.31 100.19 100.08 99.96
11/30/2021 08:00 to 7:10 99.94 99.84 99.72 99.58 99.58 99.58
11/30/2021 07:00 to 6:10 99.48 99.32 99.11 98.99 98.87 98.99
11/30/2021 06:00 to 5:10 98.91 98.95 99.01 98.79 98.57 98.31
11/30/2021 05:00 to 4:10 98.12 97.80 97.56 97.44 97.01 96.75
11/30/2021 04:00 to 3:10 96.65 96.63 96.29 96.02 95.88 95.70
11/30/2021 03:00 to 2:10 95.30 95.12 95.42 95.84 96.77 97.54
11/30/2021 02:00 to 1:10 98.61 99.03 99.11 98.93 98.79 98.43
11/30/2021 01:00 to 0:10 97.82 97.40 96.95 96.57 95.88 95.80
11/30/2021 00:00 to 23:10 95.46 95.76 95.60 95.54 95.38 95.44
11/29/2021 23:00 to 22:10 95.01 95.38 95.14 94.97 94.53 95.14
11/29/2021 22:00 to 21:10 94.59 94.04 95.05 94.43 94.15 94.04
11/29/2021 21:00 to 20:10 94.71 94.39 93.88 93.06 93.18 92.75
11/29/2021 20:00 to 19:10 92.91 92.49 92.55 92.81 92.41 92.05
11/29/2021 19:00 to 18:10 91.76 90.95 93.42 92.69 93.88 94.07
11/29/2021 18:00 to 17:10 94.37 93.32 92.91 93.14 93.22 93.48
11/29/2021 17:00 to 16:10 93.34 92.95 92.33 93.36 92.65 92.21
11/29/2021 16:00 to 15:10 91.94 91.82 92.43 93.01 93.96 95.26
11/29/2021 15:00 to 14:10 97.07 97.11 97.50 97.18 96.65 96.83
11/29/2021 14:00 to 13:10 97.20 97.68 97.50 97.70 98.17 98.47
11/29/2021 13:00 to 12:10 98.06 98.00 97.86 97.56 97.62 97.60
11/29/2021 12:00 to 11:10 97.68 97.72 97.88 97.86 98.08 98.02
11/29/2021 11:00 to 10:10 98.27 98.43 98.43 98.61 98.75 98.69
11/29/2021 10:00 to 9:10 98.59 98.79 99.05 99.18 99.36 99.62
11/29/2021 09:00 to 8:10 100.08 100.41 100.61 100.61 100.61 100.61
11/29/2021 08:00 to 7:10 100.61 100.61 100.61 100.61 100.61 100.61
11/29/2021 07:00 to 6:10 100.61 100.61 100.61 100.61 100.61 100.61
11/29/2021 06:00 to 5:10 100.61 100.61 100.61 100.61 100.61 100.61
11/29/2021 05:00 to 4:10 100.61 100.55 100.43 100.35 100.23 100.15
11/29/2021 04:00 to 3:10 100.08 100.06 100.06 100.02 99.94 99.76
11/29/2021 03:00 to 2:10 99.66 99.56 99.46 99.36 99.15 99.01
11/29/2021 02:00 to 1:10 98.71 98.51 98.33 98.21 97.84 97.14
11/29/2021 01:00 to 0:10 96.21 94.97 93.54 92.59 92.15 92.23
11/29/2021 00:00 to 23:10 91.78 91.68 91.60 91.72 91.54 91.40
11/28/2021 23:00 to 22:10 92.31 92.00 92.67 92.95 92.85 92.51
11/28/2021 22:00 to 21:10 93.62 93.78 93.98 94.73 95.32 95.74
11/28/2021 21:00 to 20:10 95.34 95.58 96.15 96.97 97.44 97.40
11/28/2021 20:00 to 19:10 97.44 97.32 96.95 96.95 96.87 97.20
11/28/2021 19:00 to 18:10 97.34 97.42 97.44 96.97 96.87 97.05
11/28/2021 18:00 to 17:10 96.93 96.89 97.11 96.89 96.93 97.18
11/28/2021 17:00 to 16:10 97.40 97.28 97.03 96.87 96.43 96.08
11/28/2021 16:00 to 15:10 95.90 96.02 96.85 96.97 96.43 96.02
11/28/2021 15:00 to 14:10 95.92 95.70 95.62 96.00 96.67 97.86
11/28/2021 14:00 to 13:10 98.17 98.93 100.57 100.61 100.61 100.61
11/28/2021 13:00 to 12:10 100.61 100.61 100.61 100.61 100.61 100.61
11/28/2021 12:00 to 11:10 100.61 100.61 100.61 100.61 100.61 100.61
11/28/2021 11:00 to 10:10 100.61 100.61 100.61 100.61 100.61 100.61
11/28/2021 10:00 to 9:10 100.61 100.61 100.61 100.61 100.61 100.61
11/28/2021 09:00 to 8:10 100.61 100.61 100.53 100.29 100.08 99.84
11/28/2021 08:00 to 7:10 99.70 99.64 99.48 98.95 98.69 99.94
11/28/2021 07:00 to 6:10 99.84 100.15 99.82 99.38 100.61 100.61
11/28/2021 06:00 to 5:10 100.61 100.61 100.61 100.59 100.35 100.61
11/28/2021 05:00 to 4:10 100.61 100.61 100.61 100.61 100.61 100.61
11/28/2021 04:00 to 3:10 100.61 100.61 100.61 100.61 100.61 100.61
11/28/2021 03:00 to 2:10 100.61 100.61 100.61 100.61 100.61 100.61
11/28/2021 02:00 to 1:10 100.61 100.61 100.61 100.61 100.61 100.61
11/28/2021 01:00 to 0:10 100.61 100.61 100.61 99.92 98.73 97.64
11/28/2021 00:00 to 23:10 97.80 97.72 96.75 97.66 98.41 98.67
11/27/2021 23:00 to 22:10 98.39 98.65 98.53 98.57 98.25 98.00
11/27/2021 22:00 to 21:10 97.86 97.14 96.59 96.71 96.53 96.23
11/27/2021 21:00 to 20:10 96.49 96.33 97.46 97.88 98.65 99.38
11/27/2021 20:00 to 19:10 99.68 99.80 99.98 100.27 100.51 100.53
11/27/2021 19:00 to 18:10 100.49 100.39 100.41 100.25 100.17 99.90
11/27/2021 18:00 to 17:10 99.30 98.91 98.63 98.21 97.76 97.44
11/27/2021 17:00 to 16:10 96.95 97.11 96.29 96.35 96.45 97.24
11/27/2021 16:00 to 15:10 96.77 96.87 97.36 96.71 96.85 95.58
11/27/2021 15:00 to 14:10 97.30 97.34 97.70 98.47 99.26 98.97
11/27/2021 14:00 to 13:10 98.93 98.59 98.27 99.72 100.57 100.61
11/27/2021 13:00 to 12:10 100.49 100.25 100.31 100.15 100.39 100.37
11/27/2021 12:00 to 11:10 99.72 99.62 99.60 99.74 99.72 99.68
11/27/2021 11:00 to 10:10 99.54 99.50 99.38 99.60 99.92 100.08
11/27/2021 10:00 to 9:10 100.51 100.61 100.61 100.63 100.61 100.61
11/27/2021 09:00 to 8:10 100.61 100.61 100.61 100.61 100.61 100.61
11/27/2021 08:00 to 7:10 100.61 100.61 100.61 100.61 100.57 100.53
11/27/2021 07:00 to 6:10 100.61 100.61 100.63 100.61 100.61 100.55
11/27/2021 06:00 to 5:10 100.39 100.27 100.15 100.02 99.86 99.70
11/27/2021 05:00 to 4:10 99.56 99.34 99.13 99.09 98.97 99.05
11/27/2021 04:00 to 3:10 98.87 98.63 98.41 98.47 98.35 98.15
11/27/2021 03:00 to 2:10 97.78 97.56 97.54 97.32 96.69 96.77
11/27/2021 02:00 to 1:10 96.31 96.67 96.95 97.32 97.66 96.93
11/27/2021 01:00 to 0:10 95.88 94.89 94.04 93.42 92.77 92.31